createdAt,value
2022-08-22T00:00:47.891Z,82.11
2022-08-22T00:02:45.720Z,80.55
2022-08-22T00:02:56.359Z,80.84
2022-08-22T00:02:57.439Z,79.95
2022-08-22T00:03:06.552Z,82.32
2022-08-22T00:03:43.643Z,81.71
2022-08-22T00:06:21.649Z,81.18
2022-08-22T00:09:33.348Z,81.31
2022-08-22T00:12:21.862Z,81.19
2022-08-22T00:15:01.648Z,81.08
2022-08-22T00:17:34.638Z,81.76
2022-08-22T00:20:28.235Z,82.15
2022-08-22T00:23:07.544Z,81.82
2022-08-22T00:25:52.943Z,81.97
2022-08-22T00:28:33.711Z,82.31
2022-08-22T00:31:07.095Z,81.89
2022-08-22T00:33:42.951Z,81.41
2022-08-22T00:36:43.178Z,81.17
2022-08-22T00:39:38.770Z,81.54
2022-08-22T00:42:44.146Z,82.55
2022-08-22T00:45:33.417Z,83.50
2022-08-22T00:48:22.513Z,83.12
2022-08-22T00:51:14.342Z,83.77
2022-08-22T00:54:19.150Z,83.96
2022-08-22T00:57:03.409Z,83.22
2022-08-22T00:59:39.360Z,83.20
2022-08-22T01:02:36.436Z,83.74
2022-08-22T01:05:18.417Z,83.90
2022-08-22T01:08:19.153Z,84.38
2022-08-22T01:11:10.467Z,84.15
2022-08-22T01:14:09.162Z,84.43
2022-08-22T01:16:55.258Z,84.21
2022-08-22T01:19:37.452Z,84.27
2022-08-22T01:22:25.837Z,83.63
2022-08-22T01:25:30.694Z,83.70
2022-08-22T01:28:03.472Z,83.85
2022-08-22T01:31:01.126Z,84.08
2022-08-22T01:34:06.277Z,84.58
2022-08-22T01:37:17.634Z,84.91
2022-08-22T01:40:09.313Z,85.09
2022-08-22T01:43:14.408Z,85.47
2022-08-22T01:45:59.578Z,85.85
2022-08-22T01:48:47.762Z,85.73
2022-08-22T01:51:42.727Z,85.64
2022-08-22T01:54:23.906Z,85.56
2022-08-22T01:56:51.058Z,85.78
2022-08-22T01:59:42.321Z,85.85
2022-08-22T02:02:21.641Z,85.98
2022-08-22T02:05:19.075Z,86.44
2022-08-22T02:07:54.341Z,86.38
2022-08-22T02:10:42.195Z,86.20
2022-08-22T02:13:12.684Z,86.13
2022-08-22T02:15:39.536Z,86.47
2022-08-22T02:18:06.376Z,86.64
2022-08-22T02:20:52.162Z,86.79
2022-08-22T02:23:50.028Z,86.79
2022-08-22T02:26:39.305Z,86.39
2022-08-22T02:29:13.646Z,86.21
2022-08-22T02:31:53.298Z,86.38
2022-08-22T02:34:30.984Z,85.53
2022-08-22T02:37:11.838Z,85.57
2022-08-22T02:40:14.383Z,85.38
2022-08-22T02:42:49.976Z,85.56
2022-08-22T02:45:25.833Z,85.79
2022-08-22T02:48:37.836Z,86.01
2022-08-22T02:51:31.476Z,86.29
2022-08-22T02:54:31.045Z,86.04
2022-08-22T02:57:14.531Z,85.11
2022-08-22T03:00:31.334Z,85.17
2022-08-22T03:03:05.045Z,85.33
2022-08-22T03:05:35.270Z,84.59
2022-08-22T03:08:18.459Z,84.06
2022-08-22T03:11:01.659Z,83.98
2022-08-22T03:13:54.146Z,84.55
2022-08-22T03:16:58.337Z,84.68
2022-08-22T03:19:48.961Z,84.54
2022-08-22T03:22:34.414Z,84.41
2022-08-22T03:25:17.434Z,83.85
2022-08-22T03:27:53.630Z,83.58
2022-08-22T03:30:40.356Z,83.81
2022-08-22T03:33:25.181Z,83.63
2022-08-22T03:36:03.932Z,83.32
2022-08-22T03:38:33.658Z,83.62
2022-08-22T03:41:38.679Z,84.09
2022-08-22T03:44:45.738Z,83.76
2022-08-22T03:47:29.479Z,85.34
2022-08-22T03:50:18.257Z,85.98
2022-08-22T03:53:06.705Z,86.00
2022-08-22T03:56:16.456Z,86.40
2022-08-22T03:59:10.246Z,87.03
2022-08-22T04:01:55.912Z,86.82
2022-08-22T04:04:53.197Z,87.28
2022-08-22T04:08:14.484Z,87.12
2022-08-22T04:11:18.917Z,87.13
2022-08-22T04:13:50.266Z,87.75
2022-08-22T04:16:26.018Z,88.27
2022-08-22T04:19:05.455Z,88.04
2022-08-22T04:21:38.354Z,87.70
2022-08-22T04:24:20.343Z,87.93
2022-08-22T04:27:04.002Z,88.40
2022-08-22T04:29:49.770Z,88.89
2022-08-22T04:32:31.256Z,88.79
2022-08-22T04:35:08.459Z,89.23
2022-08-22T04:37:53.315Z,89.68
2022-08-22T04:40:31.135Z,89.11
2022-08-22T04:43:10.588Z,89.14
2022-08-22T04:45:47.536Z,88.48
2022-08-22T04:48:25.158Z,88.29
2022-08-22T04:51:00.573Z,88.58
2022-08-22T04:53:46.368Z,87.97
2022-08-22T04:56:35.953Z,88.30
2022-08-22T04:59:12.506Z,88.51
2022-08-22T05:01:47.232Z,88.14
2022-08-22T05:04:26.858Z,87.86
2022-08-22T05:07:13.197Z,88.07
2022-08-22T05:09:47.014Z,88.83
2022-08-22T05:12:30.235Z,87.84
2022-08-22T05:15:07.270Z,87.68
2022-08-22T05:17:40.156Z,87.89
2022-08-22T05:20:12.065Z,87.31
2022-08-22T05:22:46.610Z,86.53
2022-08-22T05:25:21.527Z,84.99
2022-08-22T05:27:53.334Z,84.55
2022-08-22T05:30:27.344Z,84.29
2022-08-22T05:33:03.351Z,85.03
2022-08-22T05:35:43.912Z,84.97
2022-08-22T05:38:16.503Z,84.27
2022-08-22T05:40:51.169Z,83.56
2022-08-22T05:43:20.477Z,84.74
2022-08-22T05:45:48.495Z,85.18
2022-08-22T05:48:25.080Z,84.47
2022-08-22T05:50:58.009Z,83.84
2022-08-22T05:53:30.233Z,83.10
2022-08-22T05:55:59.948Z,82.27
2022-08-22T05:58:38.773Z,82.45
2022-08-22T06:01:19.975Z,83.22
2022-08-22T06:04:06.702Z,82.01
2022-08-22T06:06:46.826Z,81.91
2022-08-22T06:09:25.678Z,81.79
2022-08-22T06:12:15.079Z,80.87
2022-08-22T06:15:20.743Z,78.81
2022-08-22T06:17:57.827Z,78.29
2022-08-22T06:20:38.866Z,78.29
2022-08-22T06:23:07.840Z,78.00
2022-08-22T06:25:39.218Z,76.98
2022-08-22T06:28:13.562Z,74.76
2022-08-22T06:30:45.163Z,73.47
2022-08-22T06:33:20.467Z,69.95
2022-08-22T06:36:09.470Z,69.15
2022-08-22T06:39:01.092Z,68.38
2022-08-22T06:41:33.163Z,68.66
2022-08-22T06:44:03.694Z,68.02
2022-08-22T06:46:35.238Z,66.55
2022-08-22T06:49:04.554Z,65.67
2022-08-22T06:51:34.611Z,65.90
2022-08-22T06:54:03.776Z,65.49
2022-08-22T06:56:38.457Z,64.51
2022-08-22T06:59:11.318Z,64.40
2022-08-22T07:02:17.172Z,64.19
2022-08-22T07:04:46.861Z,65.30
2022-08-22T07:07:19.453Z,64.77
2022-08-22T07:09:54.752Z,64.89
2022-08-22T07:12:28.319Z,67.82
2022-08-22T07:15:00.256Z,68.76
2022-08-22T07:17:32.415Z,69.38
2022-08-22T07:20:23.148Z,68.95
2022-08-22T07:23:03.985Z,68.73
2022-08-22T07:25:33.705Z,67.88
2022-08-22T07:28:16.038Z,67.70
2022-08-22T07:31:18.086Z,67.97
2022-08-22T07:33:54.969Z,68.12
2022-08-22T07:37:03.211Z,67.94
2022-08-22T07:39:41.861Z,67.95
2022-08-22T07:42:10.889Z,68.41
2022-08-22T07:45:00.956Z,69.78
2022-08-22T07:47:49.210Z,69.71
2022-08-22T07:50:23.299Z,70.71
2022-08-22T07:52:52.055Z,72.85
2022-08-22T07:55:22.564Z,71.82
2022-08-22T07:58:03.876Z,72.67
2022-08-22T08:00:32.303Z,72.52
2022-08-22T08:03:05.345Z,72.60
2022-08-22T08:05:36.050Z,73.30
2022-08-22T08:08:33.931Z,73.01
2022-08-22T08:11:02.940Z,72.95
2022-08-22T08:13:36.198Z,71.96
2022-08-22T08:16:08.940Z,71.34
2022-08-22T08:18:38.200Z,71.24
2022-08-22T08:21:10.253Z,71.24
2022-08-22T08:23:45.565Z,70.92
2022-08-22T08:26:18.756Z,70.35
2022-08-22T08:28:49.370Z,69.97
2022-08-22T08:31:35.466Z,69.67
2022-08-22T08:34:07.517Z,69.66
2022-08-22T08:36:39.857Z,69.83
2022-08-22T08:39:13.915Z,69.60
2022-08-22T08:41:59.384Z,70.49
2022-08-22T08:45:00.855Z,70.31
2022-08-22T08:47:36.589Z,70.94
2022-08-22T08:50:13.178Z,70.87
2022-08-22T08:53:09.105Z,71.10
2022-08-22T08:55:56.009Z,71.29
2022-08-22T08:58:48.807Z,71.14
2022-08-22T09:01:27.580Z,71.97
2022-08-22T09:04:15.039Z,71.75
2022-08-22T09:10:18.940Z,72.22
2022-08-22T09:12:56.017Z,71.18
2022-08-22T09:15:37.461Z,70.90
2022-08-22T09:18:06.157Z,71.11
2022-08-22T09:21:06.030Z,70.80
2022-08-22T09:24:13.025Z,70.79
2022-08-22T09:27:09.629Z,71.03
2022-08-22T09:29:59.823Z,71.31
2022-08-22T09:32:35.905Z,71.93
2022-08-22T09:35:28.472Z,71.96
2022-08-22T09:37:58.997Z,71.27
2022-08-22T09:40:50.300Z,71.17
2022-08-22T09:43:33.781Z,71.08
2022-08-22T09:46:31.389Z,71.13
2022-08-22T09:49:19.384Z,71.28
2022-08-22T09:51:55.106Z,69.39
2022-08-22T09:54:34.536Z,67.32
2022-08-22T09:57:34.984Z,66.05
2022-08-22T10:00:04.578Z,66.26
2022-08-22T10:02:43.858Z,66.14
2022-08-22T10:05:40.961Z,65.89
2022-08-22T10:08:14.370Z,64.68
2022-08-22T10:11:06.606Z,64.82
2022-08-22T10:13:37.060Z,64.03
2022-08-22T10:16:36.895Z,61.77
2022-08-22T10:19:27.793Z,61.47
2022-08-22T10:22:19.944Z,61.25
2022-08-22T10:25:01.601Z,60.15
2022-08-22T10:27:40.418Z,59.71
2022-08-22T10:30:21.600Z,60.42
2022-08-22T10:33:03.847Z,60.54
2022-08-22T10:35:50.708Z,60.97
2022-08-22T10:38:31.816Z,59.75
2022-08-22T10:41:25.273Z,60.43
2022-08-22T10:44:04.599Z,59.75
2022-08-22T10:47:19.140Z,59.87
2022-08-22T10:49:58.528Z,59.21
2022-08-22T10:52:47.597Z,58.48
2022-08-22T10:55:27.103Z,58.14
2022-08-22T10:58:26.557Z,58.61
2022-08-22T11:00:58.484Z,59.03
2022-08-22T11:03:44.709Z,58.00
2022-08-22T11:06:35.024Z,59.06
2022-08-22T11:09:20.156Z,59.48
2022-08-22T11:12:02.875Z,59.47
2022-08-22T11:15:13.854Z,60.05
2022-08-22T11:18:20.026Z,59.36
2022-08-22T11:21:21.068Z,58.61
2022-08-22T11:24:53.965Z,58.32
2022-08-22T11:27:38.120Z,58.96
2022-08-22T11:30:22.879Z,58.23
2022-08-22T11:33:02.094Z,57.57
2022-08-22T11:35:58.130Z,58.70
2022-08-22T11:39:02.264Z,58.08
2022-08-22T11:41:41.188Z,57.82
2022-08-22T11:44:12.764Z,58.35
2022-08-22T11:46:44.939Z,56.81
2022-08-22T11:49:54.172Z,57.09
2022-08-22T11:52:23.967Z,57.95
2022-08-22T11:55:17.117Z,56.88
2022-08-22T11:57:49.917Z,56.73
2022-08-22T12:00:26.810Z,56.51
2022-08-22T12:02:59.882Z,55.51
2022-08-22T12:05:41.270Z,56.45
2022-08-22T12:08:31.156Z,55.64
2022-08-22T12:11:05.578Z,54.28
2022-08-22T12:14:03.974Z,54.66
2022-08-22T12:16:45.267Z,54.61
2022-08-22T12:20:12.852Z,54.85
2022-08-22T12:23:05.428Z,54.21
2022-08-22T12:25:48.395Z,54.08
2022-08-22T12:28:43.228Z,53.90
2022-08-22T12:31:36.971Z,53.51
2022-08-22T12:34:07.700Z,53.40
2022-08-22T12:36:42.429Z,53.48
2022-08-22T12:39:34.466Z,53.03
2022-08-22T12:42:13.577Z,53.48
2022-08-22T12:44:59.909Z,51.93
2022-08-22T12:47:44.902Z,51.31
2022-08-22T12:50:36.931Z,51.21
2022-08-22T12:53:20.359Z,51.38
2022-08-22T12:56:06.227Z,51.45
2022-08-22T12:59:04.139Z,50.77
2022-08-22T13:01:43.117Z,51.26
2022-08-22T13:04:32.488Z,51.66
2022-08-22T13:07:09.806Z,52.04
2022-08-22T13:09:40.649Z,51.62
2022-08-22T13:12:44.127Z,51.23
2022-08-22T13:15:20.498Z,50.50
2022-08-22T13:17:53.060Z,50.61
2022-08-22T13:20:32.346Z,51.02
2022-08-22T13:23:07.389Z,50.99
2022-08-22T13:26:32.217Z,51.33
2022-08-22T13:29:25.581Z,51.14
2022-08-22T13:31:59.779Z,52.00
2022-08-22T13:34:57.519Z,52.63
2022-08-22T13:37:35.238Z,53.83
2022-08-22T13:40:09.554Z,55.81
2022-08-22T13:42:47.778Z,56.98
2022-08-22T13:45:22.651Z,58.00
2022-08-22T13:48:00.070Z,58.96
2022-08-22T13:50:52.924Z,60.32
2022-08-22T13:53:37.697Z,60.01
2022-08-22T13:56:28.434Z,57.81
2022-08-22T13:59:01.359Z,57.16
2022-08-22T14:01:31.548Z,57.23
2022-08-22T14:04:28.313Z,56.67
2022-08-22T14:07:23.782Z,55.31
2022-08-22T14:09:56.296Z,55.51
2022-08-22T14:12:27.903Z,55.94
2022-08-22T14:15:04.585Z,55.31
2022-08-22T14:17:42.863Z,53.68
2022-08-22T14:20:32.156Z,52.25
2022-08-22T14:23:12.536Z,52.09
2022-08-22T14:25:42.986Z,51.30
2022-08-22T14:28:31.837Z,50.45
2022-08-22T14:31:13.683Z,49.84
2022-08-22T14:33:54.176Z,49.73
2022-08-22T14:36:29.058Z,49.52
2022-08-22T14:39:06.099Z,50.14
2022-08-22T14:42:18.112Z,49.80
2022-08-22T14:44:56.724Z,49.47
2022-08-22T14:47:55.510Z,55.49
2022-08-22T14:50:50.346Z,60.09
2022-08-22T14:53:19.958Z,64.40
2022-08-22T14:56:11.085Z,65.32
2022-08-22T14:58:58.063Z,66.42
2022-08-22T15:01:29.975Z,68.91
2022-08-22T15:04:10.243Z,69.26
2022-08-22T15:06:47.999Z,69.47
2022-08-22T15:09:32.443Z,70.44
2022-08-22T15:12:01.614Z,70.83
2022-08-22T15:14:53.057Z,72.94
2022-08-22T15:17:35.182Z,74.80
2022-08-22T15:20:27.670Z,76.90
2022-08-22T15:23:03.548Z,78.43
2022-08-22T15:25:47.152Z,79.72
2022-08-22T15:28:20.221Z,82.46
2022-08-22T15:31:03.762Z,80.78
2022-08-22T15:33:45.411Z,78.61
2022-08-22T15:36:23.998Z,83.14
2022-08-22T15:39:16.177Z,83.11
2022-08-22T15:41:46.333Z,82.49
2022-08-22T15:44:32.981Z,85.39
2022-08-22T15:47:28.450Z,88.15
2022-08-22T15:50:15.334Z,85.75
2022-08-22T15:53:14.541Z,86.08
2022-08-22T15:56:16.307Z,87.98
2022-08-22T15:58:49.597Z,88.69
2022-08-22T16:01:22.393Z,87.38
2022-08-22T16:03:59.589Z,84.57
2022-08-22T16:06:49.368Z,82.43
2022-08-22T16:09:42.738Z,83.95
2022-08-22T16:12:28.104Z,83.54
2022-08-22T16:14:55.685Z,85.73
2022-08-22T16:17:28.321Z,87.33
2022-08-22T16:20:07.375Z,90.21
2022-08-22T16:22:56.139Z,90.93
2022-08-22T16:25:47.146Z,92.31
2022-08-22T16:28:54.236Z,93.65
2022-08-22T16:31:27.156Z,94.51
2022-08-22T16:34:20.001Z,92.59
2022-08-22T16:37:03.292Z,92.54
2022-08-22T16:39:42.609Z,93.33
2022-08-22T16:42:12.177Z,94.61
2022-08-22T16:44:44.997Z,95.05
2022-08-22T16:47:11.974Z,95.79
2022-08-22T16:49:51.223Z,93.59
2022-08-22T16:52:21.709Z,91.01
2022-08-22T16:55:05.493Z,90.24
2022-08-22T16:57:54.479Z,90.22
2022-08-22T17:00:39.550Z,92.72
2022-08-22T17:03:32.691Z,94.54
2022-08-22T17:06:39.475Z,93.59
2022-08-22T17:09:39.802Z,92.55
2022-08-22T17:12:26.008Z,92.69
2022-08-22T17:15:16.296Z,93.47
2022-08-22T17:18:14.801Z,92.73
2022-08-22T17:21:17.054Z,95.04
2022-08-22T17:23:49.733Z,92.39
2022-08-22T17:26:26.831Z,91.82
2022-08-22T17:29:16.744Z,93.96
2022-08-22T17:32:11.533Z,95.39
2022-08-22T17:34:54.426Z,95.15
2022-08-22T17:38:01.245Z,95.29
2022-08-22T17:40:36.510Z,95.17
2022-08-22T17:43:15.267Z,93.73
2022-08-22T17:46:02.708Z,93.08
2022-08-22T17:48:53.264Z,93.94
2022-08-22T17:51:34.844Z,94.47
2022-08-22T17:54:24.886Z,96.42
2022-08-22T17:57:05.971Z,96.47
2022-08-22T17:59:45.288Z,93.97
2022-08-22T18:02:38.775Z,93.01
2022-08-22T18:05:33.779Z,92.95
2022-08-22T18:08:36.966Z,93.47
2022-08-22T18:11:03.308Z,93.75
2022-08-22T18:13:54.145Z,94.11
2022-08-22T18:16:29.365Z,96.53
2022-08-22T18:19:17.943Z,97.42
2022-08-22T18:21:56.761Z,95.15
2022-08-22T18:24:42.580Z,95.25
2022-08-22T18:27:51.682Z,95.04
2022-08-22T18:30:23.524Z,96.24
2022-08-22T18:33:17.986Z,95.92
2022-08-22T18:36:14.261Z,95.39
2022-08-22T18:38:54.022Z,94.10
2022-08-22T18:41:52.075Z,94.38
2022-08-22T18:44:24.343Z,94.69
2022-08-22T18:46:54.096Z,94.64
2022-08-22T18:49:23.738Z,95.28
2022-08-22T18:52:08.946Z,95.29
2022-08-22T18:54:55.761Z,95.98
2022-08-22T18:57:45.850Z,95.45
2022-08-22T19:00:18.576Z,94.99
2022-08-22T19:03:23.698Z,94.46
2022-08-22T19:06:23.637Z,93.43
2022-08-22T19:09:12.665Z,93.30
2022-08-22T19:11:51.282Z,94.91
2022-08-22T19:14:28.981Z,95.78
2022-08-22T19:17:15.921Z,95.15
2022-08-22T19:20:16.943Z,94.17
2022-08-22T19:22:44.833Z,93.43
2022-08-22T19:25:25.916Z,93.55
2022-08-22T19:28:11.094Z,94.39
2022-08-22T19:30:51.456Z,95.47
2022-08-22T19:33:25.751Z,96.86
2022-08-22T19:36:07.676Z,97.68
2022-08-22T19:39:09.113Z,97.36
2022-08-22T19:41:36.494Z,96.87
2022-08-22T19:44:03.867Z,97.59
2022-08-22T19:46:39.537Z,98.04
2022-08-22T19:49:26.893Z,97.32
2022-08-22T19:52:39.409Z,97.18
2022-08-22T19:55:28.157Z,97.34
2022-08-22T19:58:07.946Z,97.03
2022-08-22T20:00:53.352Z,96.29
2022-08-22T20:03:57.413Z,95.94
2022-08-22T20:06:45.290Z,95.26
2022-08-22T20:09:15.606Z,95.79
2022-08-22T20:12:15.522Z,96.01
2022-08-22T20:14:45.829Z,95.31
2022-08-22T20:17:25.063Z,95.46
2022-08-22T20:20:17.810Z,94.81
2022-08-22T20:22:51.921Z,95.13
2022-08-22T20:25:43.006Z,95.25
2022-08-22T20:28:38.380Z,95.15
2022-08-22T20:31:20.492Z,95.31
2022-08-22T20:33:55.031Z,95.48
2022-08-22T20:36:28.673Z,96.16
2022-08-22T20:39:24.100Z,95.84
2022-08-22T20:41:59.465Z,95.68
2022-08-22T20:44:40.163Z,94.85
2022-08-22T20:47:13.548Z,95.14
2022-08-22T20:49:51.042Z,95.45
2022-08-22T20:52:29.977Z,96.18
2022-08-22T20:55:11.997Z,96.56
2022-08-22T20:57:52.096Z,95.67
2022-08-22T21:00:27.230Z,95.54
2022-08-22T21:03:08.822Z,95.94
2022-08-22T21:05:42.490Z,96.95
2022-08-22T21:08:15.332Z,97.33
2022-08-22T21:11:01.101Z,98.12
2022-08-22T21:13:37.281Z,95.76
2022-08-22T21:16:30.713Z,95.56
2022-08-22T21:19:02.785Z,95.69
2022-08-22T21:21:32.789Z,96.90
2022-08-22T21:24:06.647Z,96.53
2022-08-22T21:26:38.079Z,96.43
2022-08-22T21:29:11.799Z,96.19
2022-08-22T21:31:59.136Z,96.30
2022-08-22T21:34:43.649Z,96.45
2022-08-22T21:37:39.300Z,96.55
2022-08-22T21:40:19.083Z,96.60
2022-08-22T21:43:05.644Z,95.73
2022-08-22T21:45:38.575Z,94.87
2022-08-22T21:48:38.444Z,95.94
2022-08-22T21:51:24.793Z,95.82
2022-08-22T21:54:30.695Z,96.00
2022-08-22T21:57:09.574Z,96.20
2022-08-22T21:59:51.650Z,97.03
2022-08-22T22:02:35.286Z,96.37
2022-08-22T22:05:24.183Z,96.85
2022-08-22T22:07:51.191Z,96.47
2022-08-22T22:10:20.480Z,95.94
2022-08-22T22:12:48.986Z,94.68
2022-08-22T22:15:21.129Z,94.64
2022-08-22T22:17:48.115Z,96.06
2022-08-22T22:20:16.705Z,97.02
2022-08-22T22:22:46.251Z,96.64
2022-08-22T22:25:41.323Z,97.33
2022-08-22T22:28:07.112Z,97.27
2022-08-22T22:30:35.000Z,95.48
2022-08-22T22:33:01.929Z,94.29
2022-08-22T22:35:29.831Z,94.39
2022-08-22T22:37:57.414Z,95.18
2022-08-22T22:40:24.897Z,95.94
2022-08-22T22:42:51.790Z,96.69
2022-08-22T22:45:18.714Z,97.12
2022-08-22T22:47:45.638Z,96.20
2022-08-22T22:50:12.913Z,95.24
2022-08-22T22:52:40.826Z,95.30
2022-08-22T22:55:09.185Z,94.95
2022-08-22T22:57:42.498Z,94.65
2022-08-22T23:00:11.047Z,94.64
2022-08-22T23:02:39.018Z,95.03
2022-08-22T23:05:08.016Z,95.95
2022-08-22T23:07:35.162Z,95.79
2022-08-22T23:10:06.208Z,95.19
2022-08-22T23:12:36.458Z,94.84
2022-08-22T23:15:05.525Z,96.12
2022-08-22T23:17:33.702Z,96.19
2022-08-22T23:20:01.067Z,96.63
2022-08-22T23:22:29.853Z,96.12
2022-08-22T23:24:57.023Z,95.54
2022-08-22T23:27:24.050Z,95.38
2022-08-22T23:29:51.305Z,95.60
2022-08-22T23:32:18.459Z,96.58
2022-08-22T23:34:48.152Z,96.27
2022-08-22T23:37:19.540Z,95.72
2022-08-22T23:39:47.543Z,94.67
2022-08-22T23:42:16.422Z,94.39
2022-08-22T23:44:45.261Z,95.10
2022-08-22T23:47:14.064Z,95.01
2022-08-22T23:49:42.777Z,96.24
2022-08-22T23:52:12.260Z,96.50
2022-08-22T23:54:39.129Z,96.20
2022-08-22T23:57:11.910Z,95.51
2022-08-22T23:59:44.832Z,94.02
